sensor_id;sensor_type;location;lat;lon;timestamp;P1;durP1;ratioP1;P2;durP2;ratioP2
52918;SDS011;38793;52.690;6.812;2023-03-23T00:01:23;8.57;;;6.05;;
52918;SDS011;38793;52.690;6.812;2023-03-23T00:03:52;13.05;;;5.45;;
52918;SDS011;38793;52.690;6.812;2023-03-23T00:06:22;7.60;;;6.00;;
52918;SDS011;38793;52.690;6.812;2023-03-23T00:08:53;7.50;;;5.85;;
52918;SDS011;38793;52.690;6.812;2023-03-23T00:11:25;11.52;;;5.60;;
52918;SDS011;38793;52.690;6.812;2023-03-23T00:13:54;8.13;;;5.72;;
52918;SDS011;38793;52.690;6.812;2023-03-23T00:16:23;10.27;;;6.25;;
52918;SDS011;38793;52.690;6.812;2023-03-23T00:18:58;9.15;;;6.00;;
52918;SDS011;38793;52.690;6.812;2023-03-23T00:21:29;8.32;;;5.53;;
52918;SDS011;38793;52.690;6.812;2023-03-23T00:24:04;9.93;;;5.80;;
52918;SDS011;38793;52.690;6.812;2023-03-23T00:26:32;8.13;;;5.25;;
52918;SDS011;38793;52.690;6.812;2023-03-23T00:31:25;11.73;;;6.25;;
52918;SDS011;38793;52.690;6.812;2023-03-23T00:33:56;11.93;;;5.25;;
52918;SDS011;38793;52.690;6.812;2023-03-23T00:36:23;7.22;;;4.55;;
52918;SDS011;38793;52.690;6.812;2023-03-23T00:38:49;5.70;;;5.07;;
52918;SDS011;38793;52.690;6.812;2023-03-23T00:41:14;8.00;;;5.23;;
52918;SDS011;38793;52.690;6.812;2023-03-23T00:43:40;11.23;;;4.90;;
52918;SDS011;38793;52.690;6.812;2023-03-23T00:46:06;10.35;;;5.28;;
52918;SDS011;38793;52.690;6.812;2023-03-23T00:48:35;6.03;;;4.72;;
52918;SDS011;38793;52.690;6.812;2023-03-23T00:51:05;7.15;;;4.85;;
52918;SDS011;38793;52.690;6.812;2023-03-23T00:53:37;6.18;;;5.15;;
52918;SDS011;38793;52.690;6.812;2023-03-23T00:56:07;7.70;;;5.35;;
52918;SDS011;38793;52.690;6.812;2023-03-23T00:58:33;6.55;;;4.68;;
52918;SDS011;38793;52.690;6.812;2023-03-23T01:01:00;10.63;;;5.28;;
52918;SDS011;38793;52.690;6.812;2023-03-23T01:03:25;5.00;;;4.28;;
52918;SDS011;38793;52.690;6.812;2023-03-23T01:05:53;5.93;;;3.08;;
52918;SDS011;38793;52.690;6.812;2023-03-23T01:08:20;10.68;;;4.88;;
52918;SDS011;38793;52.690;6.812;2023-03-23T01:13:12;8.60;;;4.40;;
52918;SDS011;38793;52.690;6.812;2023-03-23T01:15:38;6.93;;;4.03;;
52918;SDS011;38793;52.690;6.812;2023-03-23T01:18:04;7.53;;;4.30;;
52918;SDS011;38793;52.690;6.812;2023-03-23T01:20:30;7.22;;;4.60;;
52918;SDS011;38793;52.690;6.812;2023-03-23T01:22:59;6.10;;;3.85;;
52918;SDS011;38793;52.690;6.812;2023-03-23T01:25:28;4.15;;;3.58;;
52918;SDS011;38793;52.690;6.812;2023-03-23T01:27:56;9.45;;;4.78;;
52918;SDS011;38793;52.690;6.812;2023-03-23T01:32:48;6.18;;;3.55;;
52918;SDS011;38793;52.690;6.812;2023-03-23T01:35:14;4.82;;;3.40;;
52918;SDS011;38793;52.690;6.812;2023-03-23T01:37:41;4.88;;;3.70;;
52918;SDS011;38793;52.690;6.812;2023-03-23T01:40:07;9.90;;;3.88;;
52918;SDS011;38793;52.690;6.812;2023-03-23T01:42:34;5.53;;;3.78;;
52918;SDS011;38793;52.690;6.812;2023-03-23T01:47:46;4.53;;;3.88;;
52918;SDS011;38793;52.690;6.812;2023-03-23T01:50:14;4.05;;;2.75;;
52918;SDS011;38793;52.690;6.812;2023-03-23T01:52:41;6.30;;;3.58;;
52918;SDS011;38793;52.690;6.812;2023-03-23T01:55:06;10.00;;;3.60;;
52918;SDS011;38793;52.690;6.812;2023-03-23T01:57:32;4.97;;;2.63;;
52918;SDS011;38793;52.690;6.812;2023-03-23T01:59:59;4.05;;;2.92;;
52918;SDS011;38793;52.690;6.812;2023-03-23T02:02:43;5.93;;;2.97;;
52918;SDS011;38793;52.690;6.812;2023-03-23T02:05:13;5.80;;;3.00;;
52918;SDS011;38793;52.690;6.812;2023-03-23T02:07:45;7.70;;;3.05;;
52918;SDS011;38793;52.690;6.812;2023-03-23T02:10:12;6.05;;;3.35;;
52918;SDS011;38793;52.690;6.812;2023-03-23T02:12:38;9.23;;;3.33;;
52918;SDS011;38793;52.690;6.812;2023-03-23T02:15:04;5.20;;;3.03;;
52918;SDS011;38793;52.690;6.812;2023-03-23T02:20:23;5.65;;;2.88;;
52918;SDS011;38793;52.690;6.812;2023-03-23T02:25:53;5.20;;;3.00;;
52918;SDS011;38793;52.690;6.812;2023-03-23T02:33:38;7.20;;;3.40;;
52918;SDS011;38793;52.690;6.812;2023-03-23T02:36:10;5.05;;;3.10;;
52918;SDS011;38793;52.690;6.812;2023-03-23T02:38:44;3.60;;;3.13;;
52918;SDS011;38793;52.690;6.812;2023-03-23T02:41:22;5.10;;;3.13;;
52918;SDS011;38793;52.690;6.812;2023-03-23T02:43:52;5.30;;;3.05;;
52918;SDS011;38793;52.690;6.812;2023-03-23T02:46:19;8.55;;;3.38;;
52918;SDS011;38793;52.690;6.812;2023-03-23T02:48:47;6.43;;;3.20;;
52918;SDS011;38793;52.690;6.812;2023-03-23T02:51:16;7.35;;;3.55;;
52918;SDS011;38793;52.690;6.812;2023-03-23T02:53:44;8.98;;;3.63;;
52918;SDS011;38793;52.690;6.812;2023-03-23T02:56:11;5.88;;;3.70;;
52918;SDS011;38793;52.690;6.812;2023-03-23T02:58:39;5.72;;;3.35;;
52918;SDS011;38793;52.690;6.812;2023-03-23T03:03:49;8.20;;;3.83;;
52918;SDS011;38793;52.690;6.812;2023-03-23T03:11:27;5.97;;;2.72;;
52918;SDS011;38793;52.690;6.812;2023-03-23T03:19:09;8.77;;;2.15;;
52918;SDS011;38793;52.690;6.812;2023-03-23T03:21:37;3.90;;;2.35;;
52918;SDS011;38793;52.690;6.812;2023-03-23T03:24:07;3.97;;;2.25;;
52918;SDS011;38793;52.690;6.812;2023-03-23T03:26:36;3.35;;;2.55;;
52918;SDS011;38793;52.690;6.812;2023-03-23T03:29:10;4.45;;;2.53;;
52918;SDS011;38793;52.690;6.812;2023-03-23T03:31:37;4.25;;;2.90;;
52918;SDS011;38793;52.690;6.812;2023-03-23T03:34:06;2.60;;;1.95;;
52918;SDS011;38793;52.690;6.812;2023-03-23T03:36:33;5.40;;;2.72;;
52918;SDS011;38793;52.690;6.812;2023-03-23T03:39:06;3.40;;;2.95;;
52918;SDS011;38793;52.690;6.812;2023-03-23T03:41:34;2.85;;;2.50;;
52918;SDS011;38793;52.690;6.812;2023-03-23T03:44:00;6.13;;;2.35;;
52918;SDS011;38793;52.690;6.812;2023-03-23T03:46:26;3.05;;;2.70;;
52918;SDS011;38793;52.690;6.812;2023-03-23T03:48:55;4.45;;;3.10;;
52918;SDS011;38793;52.690;6.812;2023-03-23T03:51:24;7.07;;;2.40;;
52918;SDS011;38793;52.690;6.812;2023-03-23T03:53:52;5.80;;;2.55;;
52918;SDS011;38793;52.690;6.812;2023-03-23T03:56:18;3.83;;;3.03;;
52918;SDS011;38793;52.690;6.812;2023-03-23T03:58:44;3.80;;;2.47;;
52918;SDS011;38793;52.690;6.812;2023-03-23T04:01:10;3.72;;;2.58;;
52918;SDS011;38793;52.690;6.812;2023-03-23T04:03:36;4.72;;;3.10;;
52918;SDS011;38793;52.690;6.812;2023-03-23T04:06:02;3.35;;;2.20;;
52918;SDS011;38793;52.690;6.812;2023-03-23T04:08:29;4.65;;;2.85;;
52918;SDS011;38793;52.690;6.812;2023-03-23T04:10:55;4.22;;;3.67;;
52918;SDS011;38793;52.690;6.812;2023-03-23T04:13:21;4.63;;;3.17;;
52918;SDS011;38793;52.690;6.812;2023-03-23T04:15:47;4.00;;;3.13;;
52918;SDS011;38793;52.690;6.812;2023-03-23T04:18:13;6.78;;;3.40;;
52918;SDS011;38793;52.690;6.812;2023-03-23T04:20:43;5.45;;;3.13;;
52918;SDS011;38793;52.690;6.812;2023-03-23T04:23:12;4.65;;;3.30;;
52918;SDS011;38793;52.690;6.812;2023-03-23T04:25:38;7.38;;;3.03;;
52918;SDS011;38793;52.690;6.812;2023-03-23T04:28:06;7.28;;;3.55;;
52918;SDS011;38793;52.690;6.812;2023-03-23T04:30:35;5.75;;;3.22;;
52918;SDS011;38793;52.690;6.812;2023-03-23T04:33:00;3.13;;;2.83;;
52918;SDS011;38793;52.690;6.812;2023-03-23T04:35:26;5.20;;;3.17;;
52918;SDS011;38793;52.690;6.812;2023-03-23T04:37:54;3.80;;;2.83;;
52918;SDS011;38793;52.690;6.812;2023-03-23T04:40:19;3.30;;;2.70;;
52918;SDS011;38793;52.690;6.812;2023-03-23T04:45:17;5.18;;;3.10;;
52918;SDS011;38793;52.690;6.812;2023-03-23T04:47:48;4.63;;;3.00;;
52918;SDS011;38793;52.690;6.812;2023-03-23T04:50:23;3.05;;;2.65;;
52918;SDS011;38793;52.690;6.812;2023-03-23T04:52:53;5.20;;;2.47;;
52918;SDS011;38793;52.690;6.812;2023-03-23T04:55:22;8.98;;;3.08;;
52918;SDS011;38793;52.690;6.812;2023-03-23T04:57:51;3.55;;;2.72;;
52918;SDS011;38793;52.690;6.812;2023-03-23T05:00:17;4.13;;;2.53;;
52918;SDS011;38793;52.690;6.812;2023-03-23T05:02:46;4.65;;;2.55;;
52918;SDS011;38793;52.690;6.812;2023-03-23T05:05:12;4.80;;;2.72;;
52918;SDS011;38793;52.690;6.812;2023-03-23T05:07:39;5.45;;;3.00;;
52918;SDS011;38793;52.690;6.812;2023-03-23T05:10:07;10.10;;;2.80;;
52918;SDS011;38793;52.690;6.812;2023-03-23T05:12:34;5.68;;;2.83;;
52918;SDS011;38793;52.690;6.812;2023-03-23T05:15:00;5.00;;;2.10;;
52918;SDS011;38793;52.690;6.812;2023-03-23T05:17:26;4.43;;;2.65;;
52918;SDS011;38793;52.690;6.812;2023-03-23T05:19:52;6.53;;;2.42;;
52918;SDS011;38793;52.690;6.812;2023-03-23T05:22:18;5.97;;;3.35;;
52918;SDS011;38793;52.690;6.812;2023-03-23T05:24:46;6.28;;;3.08;;
52918;SDS011;38793;52.690;6.812;2023-03-23T05:27:12;6.53;;;3.17;;
52918;SDS011;38793;52.690;6.812;2023-03-23T05:29:39;5.35;;;3.13;;
52918;SDS011;38793;52.690;6.812;2023-03-23T05:32:06;4.43;;;2.25;;
52918;SDS011;38793;52.690;6.812;2023-03-23T05:34:33;3.28;;;1.15;;
52918;SDS011;38793;52.690;6.812;2023-03-23T05:37:00;3.03;;;0.93;;
52918;SDS011;38793;52.690;6.812;2023-03-23T05:39:28;8.50;;;1.35;;
52918;SDS011;38793;52.690;6.812;2023-03-23T05:41:54;9.00;;;1.02;;
52918;SDS011;38793;52.690;6.812;2023-03-23T05:44:20;5.15;;;0.80;;
52918;SDS011;38793;52.690;6.812;2023-03-23T05:46:46;8.38;;;1.40;;
52918;SDS011;38793;52.690;6.812;2023-03-23T05:49:13;4.15;;;0.93;;
52918;SDS011;38793;52.690;6.812;2023-03-23T05:51:41;5.07;;;1.00;;
52918;SDS011;38793;52.690;6.812;2023-03-23T05:56:33;4.60;;;0.88;;
52918;SDS011;38793;52.690;6.812;2023-03-23T05:58:59;6.40;;;1.02;;
52918;SDS011;38793;52.690;6.812;2023-03-23T06:01:25;3.95;;;1.00;;
52918;SDS011;38793;52.690;6.812;2023-03-23T06:03:51;2.88;;;1.05;;
52918;SDS011;38793;52.690;6.812;2023-03-23T06:06:19;5.13;;;0.80;;
52918;SDS011;38793;52.690;6.812;2023-03-23T06:08:45;6.15;;;1.02;;
52918;SDS011;38793;52.690;6.812;2023-03-23T06:11:11;7.88;;;1.25;;
52918;SDS011;38793;52.690;6.812;2023-03-23T06:13:38;5.43;;;0.82;;
52918;SDS011;38793;52.690;6.812;2023-03-23T06:16:04;7.93;;;1.30;;
52918;SDS011;38793;52.690;6.812;2023-03-23T06:18:29;3.53;;;1.02;;
52918;SDS011;38793;52.690;6.812;2023-03-23T06:20:58;5.50;;;1.23;;
52918;SDS011;38793;52.690;6.812;2023-03-23T06:23:25;4.50;;;1.30;;
52918;SDS011;38793;52.690;6.812;2023-03-23T06:28:24;7.13;;;1.63;;
52918;SDS011;38793;52.690;6.812;2023-03-23T06:30:50;13.98;;;1.95;;
52918;SDS011;38793;52.690;6.812;2023-03-23T06:33:17;10.27;;;1.60;;
52918;SDS011;38793;52.690;6.812;2023-03-23T06:35:43;8.45;;;2.15;;
52918;SDS011;38793;52.690;6.812;2023-03-23T06:38:09;8.02;;;2.05;;
52918;SDS011;38793;52.690;6.812;2023-03-23T06:40:34;12.52;;;2.65;;
52918;SDS011;38793;52.690;6.812;2023-03-23T06:45:26;11.70;;;2.20;;
52918;SDS011;38793;52.690;6.812;2023-03-23T06:47:52;10.70;;;3.55;;
52918;SDS011;38793;52.690;6.812;2023-03-23T06:50:18;7.63;;;1.90;;
52918;SDS011;38793;52.690;6.812;2023-03-23T06:52:47;10.05;;;2.63;;
52918;SDS011;38793;52.690;6.812;2023-03-23T06:55:14;8.38;;;2.70;;
52918;SDS011;38793;52.690;6.812;2023-03-23T06:57:40;13.25;;;3.15;;
52918;SDS011;38793;52.690;6.812;2023-03-23T07:00:07;10.38;;;2.13;;
52918;SDS011;38793;52.690;6.812;2023-03-23T07:02:36;9.43;;;2.30;;
52918;SDS011;38793;52.690;6.812;2023-03-23T07:05:01;13.53;;;2.50;;
52918;SDS011;38793;52.690;6.812;2023-03-23T07:07:28;13.07;;;2.60;;
52918;SDS011;38793;52.690;6.812;2023-03-23T07:09:54;8.43;;;2.20;;
52918;SDS011;38793;52.690;6.812;2023-03-23T07:12:20;9.63;;;1.83;;
52918;SDS011;38793;52.690;6.812;2023-03-23T07:14:47;6.05;;;1.98;;
52918;SDS011;38793;52.690;6.812;2023-03-23T07:17:12;9.32;;;2.15;;
52918;SDS011;38793;52.690;6.812;2023-03-23T07:19:38;9.10;;;1.73;;
52918;SDS011;38793;52.690;6.812;2023-03-23T07:22:04;6.10;;;1.80;;
52918;SDS011;38793;52.690;6.812;2023-03-23T07:24:31;7.43;;;1.75;;
52918;SDS011;38793;52.690;6.812;2023-03-23T07:26:57;8.82;;;1.40;;
52918;SDS011;38793;52.690;6.812;2023-03-23T07:29:23;7.70;;;1.63;;
52918;SDS011;38793;52.690;6.812;2023-03-23T07:31:48;11.55;;;1.77;;
52918;SDS011;38793;52.690;6.812;2023-03-23T07:34:14;7.57;;;1.90;;
52918;SDS011;38793;52.690;6.812;2023-03-23T07:36:40;8.37;;;1.57;;
52918;SDS011;38793;52.690;6.812;2023-03-23T07:39:06;9.10;;;1.70;;
52918;SDS011;38793;52.690;6.812;2023-03-23T07:41:32;10.50;;;1.48;;
52918;SDS011;38793;52.690;6.812;2023-03-23T07:43:58;13.45;;;1.92;;
52918;SDS011;38793;52.690;6.812;2023-03-23T07:46:24;10.27;;;2.17;;
52918;SDS011;38793;52.690;6.812;2023-03-23T07:48:50;12.75;;;1.95;;
52918;SDS011;38793;52.690;6.812;2023-03-23T07:51:16;10.68;;;2.60;;
52918;SDS011;38793;52.690;6.812;2023-03-23T07:53:43;12.82;;;2.00;;
52918;SDS011;38793;52.690;6.812;2023-03-23T07:56:12;14.23;;;3.08;;
52918;SDS011;38793;52.690;6.812;2023-03-23T07:58:39;11.38;;;2.75;;
52918;SDS011;38793;52.690;6.812;2023-03-23T08:01:06;9.18;;;2.25;;
52918;SDS011;38793;52.690;6.812;2023-03-23T08:03:32;9.73;;;2.67;;
52918;SDS011;38793;52.690;6.812;2023-03-23T08:06:00;12.18;;;2.40;;
52918;SDS011;38793;52.690;6.812;2023-03-23T08:08:26;10.48;;;2.70;;
52918;SDS011;38793;52.690;6.812;2023-03-23T08:10:52;8.43;;;2.20;;
52918;SDS011;38793;52.690;6.812;2023-03-23T08:13:17;12.07;;;2.00;;
52918;SDS011;38793;52.690;6.812;2023-03-23T08:15:43;6.97;;;2.20;;
52918;SDS011;38793;52.690;6.812;2023-03-23T08:18:09;8.02;;;2.08;;
52918;SDS011;38793;52.690;6.812;2023-03-23T08:20:35;11.93;;;2.28;;
52918;SDS011;38793;52.690;6.812;2023-03-23T08:25:27;8.65;;;1.80;;
52918;SDS011;38793;52.690;6.812;2023-03-23T08:27:56;10.45;;;2.40;;
52918;SDS011;38793;52.690;6.812;2023-03-23T08:30:23;8.52;;;2.88;;
52918;SDS011;38793;52.690;6.812;2023-03-23T08:32:50;8.15;;;2.10;;
52918;SDS011;38793;52.690;6.812;2023-03-23T08:35:17;9.30;;;2.15;;
52918;SDS011;38793;52.690;6.812;2023-03-23T08:37:44;11.85;;;2.33;;
52918;SDS011;38793;52.690;6.812;2023-03-23T08:40:11;7.32;;;2.58;;
52918;SDS011;38793;52.690;6.812;2023-03-23T08:42:42;22.17;;;3.72;;
52918;SDS011;38793;52.690;6.812;2023-03-23T08:45:09;15.80;;;2.88;;
52918;SDS011;38793;52.690;6.812;2023-03-23T08:47:37;16.40;;;3.33;;
52918;SDS011;38793;52.690;6.812;2023-03-23T08:50:04;9.45;;;2.70;;
52918;SDS011;38793;52.690;6.812;2023-03-23T08:52:31;13.38;;;3.63;;
52918;SDS011;38793;52.690;6.812;2023-03-23T08:54:57;17.63;;;3.60;;
52918;SDS011;38793;52.690;6.812;2023-03-23T08:57:25;12.23;;;4.32;;
52918;SDS011;38793;52.690;6.812;2023-03-23T08:59:51;13.73;;;4.13;;
52918;SDS011;38793;52.690;6.812;2023-03-23T09:02:19;18.27;;;4.63;;
52918;SDS011;38793;52.690;6.812;2023-03-23T09:04:45;13.23;;;4.25;;
52918;SDS011;38793;52.690;6.812;2023-03-23T09:07:12;14.65;;;3.38;;
52918;SDS011;38793;52.690;6.812;2023-03-23T09:09:39;11.85;;;3.95;;
52918;SDS011;38793;52.690;6.812;2023-03-23T09:12:06;12.55;;;4.20;;
52918;SDS011;38793;52.690;6.812;2023-03-23T09:14:33;11.02;;;3.42;;
52918;SDS011;38793;52.690;6.812;2023-03-23T09:17:03;12.68;;;3.70;;
52918;SDS011;38793;52.690;6.812;2023-03-23T09:19:30;9.18;;;3.28;;
52918;SDS011;38793;52.690;6.812;2023-03-23T09:21:58;16.00;;;3.40;;
52918;SDS011;38793;52.690;6.812;2023-03-23T09:24:24;6.57;;;2.60;;
52918;SDS011;38793;52.690;6.812;2023-03-23T09:26:50;11.20;;;3.05;;
52918;SDS011;38793;52.690;6.812;2023-03-23T09:29:16;9.45;;;2.22;;
52918;SDS011;38793;52.690;6.812;2023-03-23T09:31:41;9.52;;;1.80;;
52918;SDS011;38793;52.690;6.812;2023-03-23T09:36:36;10.02;;;1.98;;
52918;SDS011;38793;52.690;6.812;2023-03-23T09:39:04;7.70;;;1.60;;
52918;SDS011;38793;52.690;6.812;2023-03-23T09:46:48;7.65;;;1.30;;
52918;SDS011;38793;52.690;6.812;2023-03-23T09:52:03;9.98;;;1.70;;
52918;SDS011;38793;52.690;6.812;2023-03-23T09:54:36;6.75;;;1.58;;
52918;SDS011;38793;52.690;6.812;2023-03-23T09:57:54;11.95;;;2.00;;
52918;SDS011;38793;52.690;6.812;2023-03-23T10:00:13;8.50;;;1.30;;
52918;SDS011;38793;52.690;6.812;2023-03-23T10:02:52;9.45;;;1.80;;
52918;SDS011;38793;52.690;6.812;2023-03-23T10:05:40;6.65;;;1.95;;
